sensor_id;sensor_type;location;lat;lon;timestamp;temperature;humidity
46378;DHT22;32083;47.360;9.650;2022-10-22T00:25:53;15.10;99.90
46378;DHT22;32083;47.360;9.650;2022-10-22T00:28:39;15.10;99.90
46378;DHT22;32083;47.360;9.650;2022-10-22T00:31:08;15.10;99.90
46378;DHT22;32083;47.360;9.650;2022-10-22T00:33:34;15.10;99.90
46378;DHT22;32083;47.360;9.650;2022-10-22T00:36:04;15.10;99.90
46378;DHT22;32083;47.360;9.650;2022-10-22T00:38:30;15.00;99.90
46378;DHT22;32083;47.360;9.650;2022-10-22T00:41:04;15.10;99.90
46378;DHT22;32083;47.360;9.650;2022-10-22T00:46:57;15.10;99.90
46378;DHT22;32083;47.360;9.650;2022-10-22T03:31:59;13.40;99.90
46378;DHT22;32083;47.360;9.650;2022-10-22T03:34:43;13.50;99.90
46378;DHT22;32083;47.360;9.650;2022-10-22T03:37:12;13.40;99.90
46378;DHT22;32083;47.360;9.650;2022-10-22T03:39:43;13.40;99.90
46378;DHT22;32083;47.360;9.650;2022-10-22T03:42:16;13.40;99.90
46378;DHT22;32083;47.360;9.650;2022-10-22T03:44:57;13.40;99.90
46378;DHT22;32083;47.360;9.650;2022-10-22T03:47:30;13.40;99.90
46378;DHT22;32083;47.360;9.650;2022-10-22T04:03:54;13.50;99.90
46378;DHT22;32083;47.360;9.650;2022-10-22T04:06:24;13.40;99.90
46378;DHT22;32083;47.360;9.650;2022-10-22T04:08:53;13.40;99.90
46378;DHT22;32083;47.360;9.650;2022-10-22T04:11:24;13.40;99.90
46378;DHT22;32083;47.360;9.650;2022-10-22T04:13:59;13.30;99.90
46378;DHT22;32083;47.360;9.650;2022-10-22T04:16:30;13.30;99.90
46378;DHT22;32083;47.360;9.650;2022-10-22T04:19:08;13.40;99.90
46378;DHT22;32083;47.360;9.650;2022-10-22T04:21:37;13.30;99.90
46378;DHT22;32083;47.360;9.650;2022-10-22T04:24:05;13.30;99.90
46378;DHT22;32083;47.360;9.650;2022-10-22T04:26:34;13.30;99.90
46378;DHT22;32083;47.360;9.650;2022-10-22T04:29:05;13.40;99.90
46378;DHT22;32083;47.360;9.650;2022-10-22T04:31:37;13.40;99.90
46378;DHT22;32083;47.360;9.650;2022-10-22T04:34:11;13.50;99.90
46378;DHT22;32083;47.360;9.650;2022-10-22T04:36:37;13.50;99.90
46378;DHT22;32083;47.360;9.650;2022-10-22T04:39:09;13.50;99.90
46378;DHT22;32083;47.360;9.650;2022-10-22T04:41:45;13.40;99.90
46378;DHT22;32083;47.360;9.650;2022-10-22T04:44:14;13.40;99.90
46378;DHT22;32083;47.360;9.650;2022-10-22T04:46:45;13.40;99.90
46378;DHT22;32083;47.360;9.650;2022-10-22T04:49:24;13.40;99.90
46378;DHT22;32083;47.360;9.650;2022-10-22T04:51:54;13.40;99.90
46378;DHT22;32083;47.360;9.650;2022-10-22T04:54:27;13.40;99.90
46378;DHT22;32083;47.360;9.650;2022-10-22T04:57:15;13.40;99.90
46378;DHT22;32083;47.360;9.650;2022-10-22T04:59:45;13.40;99.90
46378;DHT22;32083;47.360;9.650;2022-10-22T05:02:16;13.40;99.90
46378;DHT22;32083;47.360;9.650;2022-10-22T05:04:43;13.40;99.90
46378;DHT22;32083;47.360;9.650;2022-10-22T05:07:09;13.40;99.90
46378;DHT22;32083;47.360;9.650;2022-10-22T05:09:35;13.40;99.90
46378;DHT22;32083;47.360;9.650;2022-10-22T05:12:01;13.30;99.90
46378;DHT22;32083;47.360;9.650;2022-10-22T05:14:27;13.30;99.90
46378;DHT22;32083;47.360;9.650;2022-10-22T05:16:53;13.40;99.90
46378;DHT22;32083;47.360;9.650;2022-10-22T05:19:24;13.40;99.90
46378;DHT22;32083;47.360;9.650;2022-10-22T05:21:55;13.40;99.90
46378;DHT22;32083;47.360;9.650;2022-10-22T05:24:22;13.40;99.90
46378;DHT22;32083;47.360;9.650;2022-10-22T05:26:49;13.40;99.90
46378;DHT22;32083;47.360;9.650;2022-10-22T05:29:15;13.40;99.90
46378;DHT22;32083;47.360;9.650;2022-10-22T05:31:41;13.40;99.90
46378;DHT22;32083;47.360;9.650;2022-10-22T05:34:07;13.40;99.90
46378;DHT22;32083;47.360;9.650;2022-10-22T05:36:33;13.50;99.90
46378;DHT22;32083;47.360;9.650;2022-10-22T05:39:00;13.40;99.90
46378;DHT22;32083;47.360;9.650;2022-10-22T05:41:27;13.50;99.90
46378;DHT22;32083;47.360;9.650;2022-10-22T05:43:57;13.50;99.90
46378;DHT22;32083;47.360;9.650;2022-10-22T05:46:28;13.50;99.90
46378;DHT22;32083;47.360;9.650;2022-10-22T05:48:55;13.50;99.90
46378;DHT22;32083;47.360;9.650;2022-10-22T05:51:22;13.60;99.90
46378;DHT22;32083;47.360;9.650;2022-10-22T05:53:57;13.50;99.90
46378;DHT22;32083;47.360;9.650;2022-10-22T05:56:25;13.50;99.90
46378;DHT22;32083;47.360;9.650;2022-10-22T05:58:51;13.50;99.90
46378;DHT22;32083;47.360;9.650;2022-10-22T06:01:20;13.50;99.90
46378;DHT22;32083;47.360;9.650;2022-10-22T06:03:47;13.50;99.90
46378;DHT22;32083;47.360;9.650;2022-10-22T06:06:27;13.50;99.90
46378;DHT22;32083;47.360;9.650;2022-10-22T06:08:54;13.50;99.90
46378;DHT22;32083;47.360;9.650;2022-10-22T06:11:22;13.50;99.90
46378;DHT22;32083;47.360;9.650;2022-10-22T06:13:49;13.50;99.90
46378;DHT22;32083;47.360;9.650;2022-10-22T06:16:15;13.50;99.90
46378;DHT22;32083;47.360;9.650;2022-10-22T06:18:41;13.50;99.90
46378;DHT22;32083;47.360;9.650;2022-10-22T06:21:09;13.60;99.90
46378;DHT22;32083;47.360;9.650;2022-10-22T06:23:36;13.60;99.90
46378;DHT22;32083;47.360;9.650;2022-10-22T06:26:04;13.60;99.90
46378;DHT22;32083;47.360;9.650;2022-10-22T06:28:30;13.60;99.90
46378;DHT22;32083;47.360;9.650;2022-10-22T06:30:58;13.60;99.90
46378;DHT22;32083;47.360;9.650;2022-10-22T06:33:25;13.60;99.90
46378;DHT22;32083;47.360;9.650;2022-10-22T06:35:51;13.60;99.90
46378;DHT22;32083;47.360;9.650;2022-10-22T06:38:17;13.60;99.90
46378;DHT22;32083;47.360;9.650;2022-10-22T06:40:43;13.60;99.90
46378;DHT22;32083;47.360;9.650;2022-10-22T06:43:13;13.70;99.90
46378;DHT22;32083;47.360;9.650;2022-10-22T06:45:39;13.70;99.90
46378;DHT22;32083;47.360;9.650;2022-10-22T06:48:06;13.60;99.90
46378;DHT22;32083;47.360;9.650;2022-10-22T06:50:35;13.70;99.90
46378;DHT22;32083;47.360;9.650;2022-10-22T06:53:01;13.70;99.90
46378;DHT22;32083;47.360;9.650;2022-10-22T06:55:27;13.70;99.90
46378;DHT22;32083;47.360;9.650;2022-10-22T06:57:54;13.70;99.90
46378;DHT22;32083;47.360;9.650;2022-10-22T07:00:20;13.70;99.90
46378;DHT22;32083;47.360;9.650;2022-10-22T07:02:50;13.70;99.90
46378;DHT22;32083;47.360;9.650;2022-10-22T07:05:18;13.70;99.90
46378;DHT22;32083;47.360;9.650;2022-10-22T07:07:43;13.70;99.90
46378;DHT22;32083;47.360;9.650;2022-10-22T07:10:09;13.70;99.90
46378;DHT22;32083;47.360;9.650;2022-10-22T07:12:35;13.80;99.90
46378;DHT22;32083;47.360;9.650;2022-10-22T07:15:02;13.70;99.90
46378;DHT22;32083;47.360;9.650;2022-10-22T07:17:28;13.80;99.90
46378;DHT22;32083;47.360;9.650;2022-10-22T07:19:54;13.80;99.90
46378;DHT22;32083;47.360;9.650;2022-10-22T07:22:19;13.90;99.90
46378;DHT22;32083;47.360;9.650;2022-10-22T07:24:46;13.90;99.90
46378;DHT22;32083;47.360;9.650;2022-10-22T07:27:12;13.90;99.90
46378;DHT22;32083;47.360;9.650;2022-10-22T07:29:38;13.90;99.90
46378;DHT22;32083;47.360;9.650;2022-10-22T07:32:04;14.00;99.90
46378;DHT22;32083;47.360;9.650;2022-10-22T07:34:30;14.00;99.90
46378;DHT22;32083;47.360;9.650;2022-10-22T07:36:55;14.00;99.90
46378;DHT22;32083;47.360;9.650;2022-10-22T07:39:22;14.00;99.90
46378;DHT22;32083;47.360;9.650;2022-10-22T07:41:50;14.00;99.90
46378;DHT22;32083;47.360;9.650;2022-10-22T07:44:16;14.10;99.90
46378;DHT22;32083;47.360;9.650;2022-10-22T07:46:42;14.00;99.90
46378;DHT22;32083;47.360;9.650;2022-10-22T07:49:08;14.00;99.90
46378;DHT22;32083;47.360;9.650;2022-10-22T07:51:34;14.00;99.90
46378;DHT22;32083;47.360;9.650;2022-10-22T07:54:00;14.10;99.90
46378;DHT22;32083;47.360;9.650;2022-10-22T07:56:26;14.00;99.90
46378;DHT22;32083;47.360;9.650;2022-10-22T07:58:52;14.10;99.90
46378;DHT22;32083;47.360;9.650;2022-10-22T08:01:18;14.10;99.90
46378;DHT22;32083;47.360;9.650;2022-10-22T08:03:44;14.10;99.90
46378;DHT22;32083;47.360;9.650;2022-10-22T08:06:12;14.10;99.90
46378;DHT22;32083;47.360;9.650;2022-10-22T08:08:40;14.10;99.90
46378;DHT22;32083;47.360;9.650;2022-10-22T08:11:06;14.20;99.90
46378;DHT22;32083;47.360;9.650;2022-10-22T08:13:32;14.30;99.90
46378;DHT22;32083;47.360;9.650;2022-10-22T08:15:59;14.30;99.90
46378;DHT22;32083;47.360;9.650;2022-10-22T08:18:25;14.40;99.90
46378;DHT22;32083;47.360;9.650;2022-10-22T08:20:51;14.50;99.90
46378;DHT22;32083;47.360;9.650;2022-10-22T08:23:18;14.50;99.90
46378;DHT22;32083;47.360;9.650;2022-10-22T08:25:44;14.50;99.90
46378;DHT22;32083;47.360;9.650;2022-10-22T08:28:10;14.50;99.90
46378;DHT22;32083;47.360;9.650;2022-10-22T08:30:36;14.50;99.90
46378;DHT22;32083;47.360;9.650;2022-10-22T08:33:04;14.50;99.90
46378;DHT22;32083;47.360;9.650;2022-10-22T08:35:30;14.50;99.90
46378;DHT22;32083;47.360;9.650;2022-10-22T08:37:56;14.60;99.90
46378;DHT22;32083;47.360;9.650;2022-10-22T08:40:28;14.60;99.90
46378;DHT22;32083;47.360;9.650;2022-10-22T08:46:24;14.50;99.90
46378;DHT22;32083;47.360;9.650;2022-10-22T08:49:00;14.50;99.90
46378;DHT22;32083;47.360;9.650;2022-10-22T08:51:32;14.50;99.90
46378;DHT22;32083;47.360;9.650;2022-10-22T08:54:22;14.60;99.90
46378;DHT22;32083;47.360;9.650;2022-10-22T09:02:51;14.70;99.90
46378;DHT22;32083;47.360;9.650;2022-10-22T09:07:47;14.80;99.90
46378;DHT22;32083;47.360;9.650;2022-10-22T09:10:21;14.70;99.90
46378;DHT22;32083;47.360;9.650;2022-10-22T09:12:49;14.80;99.90
46378;DHT22;32083;47.360;9.650;2022-10-22T09:15:17;14.80;99.90
46378;DHT22;32083;47.360;9.650;2022-10-22T09:18:11;14.80;99.90
46378;DHT22;32083;47.360;9.650;2022-10-22T09:20:55;14.80;99.90
46378;DHT22;32083;47.360;9.650;2022-10-22T09:25:52;15.00;99.90
46378;DHT22;32083;47.360;9.650;2022-10-22T09:28:18;15.10;99.90
46378;DHT22;32083;47.360;9.650;2022-10-22T09:30:44;15.20;99.90
46378;DHT22;32083;47.360;9.650;2022-10-22T09:33:15;15.30;99.90
46378;DHT22;32083;47.360;9.650;2022-10-22T09:35:46;15.30;99.90
46378;DHT22;32083;47.360;9.650;2022-10-22T09:38:15;15.40;99.90
46378;DHT22;32083;47.360;9.650;2022-10-22T09:40:47;15.40;99.90
46378;DHT22;32083;47.360;9.650;2022-10-22T09:43:14;15.40;99.90
46378;DHT22;32083;47.360;9.650;2022-10-22T09:45:41;15.40;99.90
46378;DHT22;32083;47.360;9.650;2022-10-22T09:48:22;15.50;99.90
46378;DHT22;32083;47.360;9.650;2022-10-22T09:51:56;15.50;99.90
46378;DHT22;32083;47.360;9.650;2022-10-22T09:54:02;15.50;99.90
46378;DHT22;32083;47.360;9.650;2022-10-22T09:56:45;15.50;99.90
46378;DHT22;32083;47.360;9.650;2022-10-22T09:59:15;15.50;99.90
46378;DHT22;32083;47.360;9.650;2022-10-22T10:01:42;15.50;99.90
46378;DHT22;32083;47.360;9.650;2022-10-22T10:04:11;15.50;99.90
46378;DHT22;32083;47.360;9.650;2022-10-22T10:06:41;15.50;99.90
46378;DHT22;32083;47.360;9.650;2022-10-22T10:09:20;15.50;99.90
46378;DHT22;32083;47.360;9.650;2022-10-22T10:12:08;15.60;99.90
46378;DHT22;32083;47.360;9.650;2022-10-22T10:21:06;15.70;99.90
46378;DHT22;32083;47.360;9.650;2022-10-22T10:26:35;15.80;99.90
46378;DHT22;32083;47.360;9.650;2022-10-22T10:42:21;16.10;99.90
46378;DHT22;32083;47.360;9.650;2022-10-22T10:45:27;16.10;99.90
46378;DHT22;32083;47.360;9.650;2022-10-22T10:50:49;16.20;99.90
46378;DHT22;32083;47.360;9.650;2022-10-22T10:58:47;16.40;99.90
46378;DHT22;32083;47.360;9.650;2022-10-22T11:06:32;16.50;99.90
46378;DHT22;32083;47.360;9.650;2022-10-22T11:09:13;16.60;99.90
46378;DHT22;32083;47.360;9.650;2022-10-22T11:14:28;16.60;99.90
46378;DHT22;32083;47.360;9.650;2022-10-22T11:17:02;16.60;99.90
46378;DHT22;32083;47.360;9.650;2022-10-22T11:19:51;16.70;99.90
46378;DHT22;32083;47.360;9.650;2022-10-22T11:22:37;16.70;99.90
46378;DHT22;32083;47.360;9.650;2022-10-22T11:27:52;16.90;99.90
46378;DHT22;32083;47.360;9.650;2022-10-22T11:30:22;16.90;99.90
46378;DHT22;32083;47.360;9.650;2022-10-22T11:32:53;17.00;99.90
46378;DHT22;32083;47.360;9.650;2022-10-22T11:35:39;16.90;99.90
46378;DHT22;32083;47.360;9.650;2022-10-22T11:38:06;17.00;99.90
46378;DHT22;32083;47.360;9.650;2022-10-22T11:40:43;16.90;99.90
46378;DHT22;32083;47.360;9.650;2022-10-22T11:43:28;17.00;99.90
46378;DHT22;32083;47.360;9.650;2022-10-22T11:48:43;17.10;99.90
46378;DHT22;32083;47.360;9.650;2022-10-22T11:51:36;17.10;99.90
46378;DHT22;32083;47.360;9.650;2022-10-22T11:56:57;17.10;99.90
46378;DHT22;32083;47.360;9.650;2022-10-22T11:59:58;17.20;99.70
46378;DHT22;32083;47.360;9.650;2022-10-22T12:02:37;17.20;99.90
46378;DHT22;32083;47.360;9.650;2022-10-22T12:07:57;17.30;99.30
46378;DHT22;32083;47.360;9.650;2022-10-22T12:10:56;17.30;99.90
46378;DHT22;32083;47.360;9.650;2022-10-22T12:13:29;17.30;99.90
46378;DHT22;32083;47.360;9.650;2022-10-22T12:16:00;17.40;99.90
46378;DHT22;32083;47.360;9.650;2022-10-22T12:18:33;17.40;99.90
46378;DHT22;32083;47.360;9.650;2022-10-22T12:21:00;17.50;99.90
46378;DHT22;32083;47.360;9.650;2022-10-22T12:23:31;17.50;99.90
46378;DHT22;32083;47.360;9.650;2022-10-22T12:25:58;17.60;99.90
46378;DHT22;32083;47.360;9.650;2022-10-22T12:28:24;17.60;99.90
46378;DHT22;32083;47.360;9.650;2022-10-22T12:30:50;17.60;99.90
46378;DHT22;32083;47.360;9.650;2022-10-22T12:33:22;17.70;99.50
46378;DHT22;32083;47.360;9.650;2022-10-22T12:35:49;17.70;99.30
46378;DHT22;32083;47.360;9.650;2022-10-22T12:38:20;17.70;99.70
46378;DHT22;32083;47.360;9.650;2022-10-22T12:40:48;17.80;99.70
46378;DHT22;32083;47.360;9.650;2022-10-22T12:43:27;17.80;98.80
46378;DHT22;32083;47.360;9.650;2022-10-22T12:45:54;17.90;99.50
46378;DHT22;32083;47.360;9.650;2022-10-22T12:48:38;18.00;99.70
46378;DHT22;32083;47.360;9.650;2022-10-22T12:51:05;17.90;98.50
46378;DHT22;32083;47.360;9.650;2022-10-22T12:53:50;18.00;98.40
46378;DHT22;32083;47.360;9.650;2022-10-22T12:56:25;18.00;98.30
46378;DHT22;32083;47.360;9.650;2022-10-22T12:58:58;18.00;97.90
46378;DHT22;32083;47.360;9.650;2022-10-22T13:01:28;18.00;97.80
46378;DHT22;32083;47.360;9.650;2022-10-22T13:04:34;18.10;99.30
46378;DHT22;32083;47.360;9.650;2022-10-22T13:09:40;18.20;98.60
46378;DHT22;32083;47.360;9.650;2022-10-22T13:12:09;18.20;98.30
46378;DHT22;32083;47.360;9.650;2022-10-22T13:14:41;18.30;97.80
46378;DHT22;32083;47.360;9.650;2022-10-22T13:17:16;18.30;98.20
46378;DHT22;32083;47.360;9.650;2022-10-22T13:22:33;18.40;98.10
46378;DHT22;32083;47.360;9.650;2022-10-22T13:25:29;18.40;98.40
46378;DHT22;32083;47.360;9.650;2022-10-22T13:28:11;18.50;97.30
46378;DHT22;32083;47.360;9.650;2022-10-22T13:30:51;18.50;97.20
46378;DHT22;32083;47.360;9.650;2022-10-22T13:33:29;18.50;96.60
46378;DHT22;32083;47.360;9.650;2022-10-22T13:35:57;18.50;95.90
46378;DHT22;32083;47.360;9.650;2022-10-22T13:38:25;18.60;97.00
46378;DHT22;32083;47.360;9.650;2022-10-22T13:40:51;18.60;96.90
46378;DHT22;32083;47.360;9.650;2022-10-22T13:43:18;18.60;96.00
46378;DHT22;32083;47.360;9.650;2022-10-22T13:45:45;18.60;96.10
46378;DHT22;32083;47.360;9.650;2022-10-22T13:48:17;18.50;95.70
46378;DHT22;32083;47.360;9.650;2022-10-22T13:50:44;18.40;94.60
46378;DHT22;32083;47.360;9.650;2022-10-22T13:53:22;18.30;94.90
46378;DHT22;32083;47.360;9.650;2022-10-22T13:55:49;18.30;94.70
46378;DHT22;32083;47.360;9.650;2022-10-22T13:58:20;18.30;95.80
46378;DHT22;32083;47.360;9.650;2022-10-22T14:00:51;18.30;95.80
46378;DHT22;32083;47.360;9.650;2022-10-22T14:03:21;18.40;96.40
46378;DHT22;32083;47.360;9.650;2022-10-22T14:05:48;18.50;96.60
46378;DHT22;32083;47.360;9.650;2022-10-22T14:08:17;18.50;95.80
46378;DHT22;32083;47.360;9.650;2022-10-22T14:10:44;18.60;95.40
46378;DHT22;32083;47.360;9.650;2022-10-22T14:13:12;18.60;96.00
46378;DHT22;32083;47.360;9.650;2022-10-22T14:15:38;18.70;96.20
46378;DHT22;32083;47.360;9.650;2022-10-22T14:18:06;18.70;95.90
46378;DHT22;32083;47.360;9.650;2022-10-22T14:20:35;18.70;96.00
46378;DHT22;32083;47.360;9.650;2022-10-22T14:23:12;18.80;96.00
46378;DHT22;32083;47.360;9.650;2022-10-22T14:25:39;18.80;96.80
46378;DHT22;32083;47.360;9.650;2022-10-22T14:28:07;18.80;96.10
46378;DHT22;32083;47.360;9.650;2022-10-22T14:30:33;18.80;95.50
46378;DHT22;32083;47.360;9.650;2022-10-22T14:32:59;18.80;94.80
46378;DHT22;32083;47.360;9.650;2022-10-22T14:35:25;18.80;94.30
46378;DHT22;32083;47.360;9.650;2022-10-22T14:37:51;18.80;94.10
46378;DHT22;32083;47.360;9.650;2022-10-22T14:40:19;18.70;95.60
46378;DHT22;32083;47.360;9.650;2022-10-22T14:42:47;18.70;94.50
46378;DHT22;32083;47.360;9.650;2022-10-22T14:45:20;18.70;95.00
46378;DHT22;32083;47.360;9.650;2022-10-22T14:47:48;18.70;94.70
46378;DHT22;32083;47.360;9.650;2022-10-22T14:50:14;18.60;95.10
46378;DHT22;32083;47.360;9.650;2022-10-22T14:52:41;18.70;95.60
46378;DHT22;32083;47.360;9.650;2022-10-22T14:55:09;18.60;96.20
46378;DHT22;32083;47.360;9.650;2022-10-22T14:57:36;18.60;94.50
46378;DHT22;32083;47.360;9.650;2022-10-22T15:00:06;18.60;94.60
46378;DHT22;32083;47.360;9.650;2022-10-22T15:02:32;18.60;94.70
46378;DHT22;32083;47.360;9.650;2022-10-22T15:04:58;18.60;94.90
46378;DHT22;32083;47.360;9.650;2022-10-22T15:07:24;18.60;93.80
46378;DHT22;32083;47.360;9.650;2022-10-22T15:09:52;18.50;95.20
46378;DHT22;32083;47.360;9.650;2022-10-22T15:12:18;18.50;96.00
46378;DHT22;32083;47.360;9.650;2022-10-22T15:14:47;18.50;96.30
46378;DHT22;32083;47.360;9.650;2022-10-22T15:17:15;18.40;96.10
46378;DHT22;32083;47.360;9.650;2022-10-22T15:19:41;18.40;96.20
46378;DHT22;32083;47.360;9.650;2022-10-22T15:22:12;18.30;95.40
46378;DHT22;32083;47.360;9.650;2022-10-22T15:24:39;18.30;95.20
46378;DHT22;32083;47.360;9.650;2022-10-22T15:27:05;18.20;95.60
46378;DHT22;32083;47.360;9.650;2022-10-22T15:29:32;18.20;95.20
46378;DHT22;32083;47.360;9.650;2022-10-22T15:31:58;18.20;95.20
46378;DHT22;32083;47.360;9.650;2022-10-22T15:34:31;18.20;95.40
46378;DHT22;32083;47.360;9.650;2022-10-22T15:36:59;18.10;95.30
46378;DHT22;32083;47.360;9.650;2022-10-22T15:39:26;18.10;96.50
46378;DHT22;32083;47.360;9.650;2022-10-22T15:41:53;18.00;96.00
46378;DHT22;32083;47.360;9.650;2022-10-22T15:44:22;18.00;96.40
46378;DHT22;32083;47.360;9.650;2022-10-22T15:46:49;18.00;96.70
46378;DHT22;32083;47.360;9.650;2022-10-22T15:49:20;17.90;96.80
46378;DHT22;32083;47.360;9.650;2022-10-22T15:51:47;17.80;96.80
46378;DHT22;32083;47.360;9.650;2022-10-22T15:54:15;17.80;97.00
46378;DHT22;32083;47.360;9.650;2022-10-22T15:56:41;17.70;97.20
46378;DHT22;32083;47.360;9.650;2022-10-22T15:59:10;17.60;97.80
46378;DHT22;32083;47.360;9.650;2022-10-22T16:01:36;17.60;98.20
46378;DHT22;32083;47.360;9.650;2022-10-22T16:04:03;17.50;98.30
46378;DHT22;32083;47.360;9.650;2022-10-22T16:09:01;17.30;99.10
46378;DHT22;32083;47.360;9.650;2022-10-22T16:11:28;17.30;99.30
46378;DHT22;32083;47.360;9.650;2022-10-22T16:13:55;17.20;99.50
46378;DHT22;32083;47.360;9.650;2022-10-22T16:16:23;17.10;99.90
46378;DHT22;32083;47.360;9.650;2022-10-22T16:18:50;17.00;99.90
46378;DHT22;32083;47.360;9.650;2022-10-22T16:21:17;17.00;99.90
46378;DHT22;32083;47.360;9.650;2022-10-22T16:23:43;16.90;99.90
46378;DHT22;32083;47.360;9.650;2022-10-22T16:26:10;16.80;99.90
46378;DHT22;32083;47.360;9.650;2022-10-22T16:28:36;16.70;99.90
46378;DHT22;32083;47.360;9.650;2022-10-22T16:31:03;16.60;99.90
46378;DHT22;32083;47.360;9.650;2022-10-22T16:33:30;16.60;99.90
46378;DHT22;32083;47.360;9.650;2022-10-22T16:35:58;16.60;99.90
46378;DHT22;32083;47.360;9.650;2022-10-22T16:38:27;16.50;99.90
46378;DHT22;32083;47.360;9.650;2022-10-22T16:40:53;16.40;99.90
46378;DHT22;32083;47.360;9.650;2022-10-22T16:43:30;16.30;99.90
46378;DHT22;32083;47.360;9.650;2022-10-22T16:45:56;16.30;99.90
46378;DHT22;32083;47.360;9.650;2022-10-22T16:48:22;16.20;99.90
46378;DHT22;32083;47.360;9.650;2022-10-22T16:50:48;16.20;99.90
46378;DHT22;32083;47.360;9.650;2022-10-22T16:53:14;16.10;99.90
46378;DHT22;32083;47.360;9.650;2022-10-22T16:55:40;16.00;99.90
46378;DHT22;32083;47.360;9.650;2022-10-22T16:58:06;16.00;99.90
46378;DHT22;32083;47.360;9.650;2022-10-22T17:00:33;15.90;99.90
46378;DHT22;32083;47.360;9.650;2022-10-22T17:02:59;15.80;99.90
46378;DHT22;32083;47.360;9.650;2022-10-22T17:05:25;15.80;99.90
46378;DHT22;32083;47.360;9.650;2022-10-22T17:07:51;15.70;99.90
46378;DHT22;32083;47.360;9.650;2022-10-22T17:10:19;15.70;99.90
46378;DHT22;32083;47.360;9.650;2022-10-22T17:12:46;15.70;99.90
46378;DHT22;32083;47.360;9.650;2022-10-22T17:15:12;15.60;99.90
46378;DHT22;32083;47.360;9.650;2022-10-22T17:17:39;15.60;99.90
46378;DHT22;32083;47.360;9.650;2022-10-22T17:20:05;15.60;99.90
46378;DHT22;32083;47.360;9.650;2022-10-22T17:22:31;15.50;99.90
46378;DHT22;32083;47.360;9.650;2022-10-22T17:25:21;15.40;99.90
46378;DHT22;32083;47.360;9.650;2022-10-22T17:27:49;15.40;99.90
46378;DHT22;32083;47.360;9.650;2022-10-22T17:30:17;15.30;99.90
46378;DHT22;32083;47.360;9.650;2022-10-22T17:32:44;15.30;99.90
46378;DHT22;32083;47.360;9.650;2022-10-22T17:35:11;15.20;99.90
46378;DHT22;32083;47.360;9.650;2022-10-22T17:37:39;15.20;99.90
46378;DHT22;32083;47.360;9.650;2022-10-22T17:40:05;15.10;99.90
46378;DHT22;32083;47.360;9.650;2022-10-22T17:42:32;15.10;99.90
46378;DHT22;32083;47.360;9.650;2022-10-22T17:44:58;15.00;99.90
46378;DHT22;32083;47.360;9.650;2022-10-22T17:47:24;15.00;99.90
46378;DHT22;32083;47.360;9.650;2022-10-22T17:49:50;15.00;99.90
46378;DHT22;32083;47.360;9.650;2022-10-22T17:52:16;14.90;99.90
46378;DHT22;32083;47.360;9.650;2022-10-22T17:54:42;14.80;99.90
46378;DHT22;32083;47.360;9.650;2022-10-22T17:57:09;14.80;99.90
46378;DHT22;32083;47.360;9.650;2022-10-22T17:59:36;14.70;99.90
46378;DHT22;32083;47.360;9.650;2022-10-22T18:02:02;14.60;99.90
46378;DHT22;32083;47.360;9.650;2022-10-22T18:04:30;14.60;99.90
46378;DHT22;32083;47.360;9.650;2022-10-22T18:06:58;14.60;99.90
46378;DHT22;32083;47.360;9.650;2022-10-22T18:09:24;14.50;99.90
46378;DHT22;32083;47.360;9.650;2022-10-22T18:11:52;14.60;99.90
46378;DHT22;32083;47.360;9.650;2022-10-22T18:14:20;14.50;99.90
46378;DHT22;32083;47.360;9.650;2022-10-22T18:16:47;14.50;99.90
46378;DHT22;32083;47.360;9.650;2022-10-22T18:19:19;14.40;99.90
46378;DHT22;32083;47.360;9.650;2022-10-22T18:21:47;14.50;99.90
46378;DHT22;32083;47.360;9.650;2022-10-22T18:24:14;14.40;99.90
46378;DHT22;32083;47.360;9.650;2022-10-22T18:26:42;14.40;99.90
46378;DHT22;32083;47.360;9.650;2022-10-22T18:29:10;14.40;99.90
46378;DHT22;32083;47.360;9.650;2022-10-22T18:31:38;14.30;99.90
46378;DHT22;32083;47.360;9.650;2022-10-22T18:34:05;14.30;99.90
46378;DHT22;32083;47.360;9.650;2022-10-22T18:36:31;14.30;99.90
46378;DHT22;32083;47.360;9.650;2022-10-22T18:38:59;14.30;99.90
46378;DHT22;32083;47.360;9.650;2022-10-22T18:41:27;14.20;99.90
46378;DHT22;32083;47.360;9.650;2022-10-22T18:44:01;14.20;99.90
46378;DHT22;32083;47.360;9.650;2022-10-22T18:46:29;14.20;99.90
46378;DHT22;32083;47.360;9.650;2022-10-22T18:48:56;14.10;99.90
46378;DHT22;32083;47.360;9.650;2022-10-22T18:51:23;14.10;99.90
46378;DHT22;32083;47.360;9.650;2022-10-22T18:53:51;14.10;99.90
46378;DHT22;32083;47.360;9.650;2022-10-22T18:56:19;14.00;99.90
46378;DHT22;32083;47.360;9.650;2022-10-22T18:58:47;14.00;99.90
46378;DHT22;32083;47.360;9.650;2022-10-22T19:01:16;14.00;99.90
46378;DHT22;32083;47.360;9.650;2022-10-22T19:03:42;13.90;99.90
46378;DHT22;32083;47.360;9.650;2022-10-22T19:06:09;13.90;99.90
46378;DHT22;32083;47.360;9.650;2022-10-22T19:08:37;13.90;99.90
46378;DHT22;32083;47.360;9.650;2022-10-22T19:11:14;13.90;99.90
46378;DHT22;32083;47.360;9.650;2022-10-22T19:13:41;13.90;99.90
46378;DHT22;32083;47.360;9.650;2022-10-22T19:16:10;13.80;99.90
46378;DHT22;32083;47.360;9.650;2022-10-22T19:18:37;13.80;99.90
46378;DHT22;32083;47.360;9.650;2022-10-22T19:21:07;13.80;99.90
46378;DHT22;32083;47.360;9.650;2022-10-22T19:23:33;13.70;99.90
46378;DHT22;32083;47.360;9.650;2022-10-22T19:26:08;13.70;99.90
46378;DHT22;32083;47.360;9.650;2022-10-22T19:28:35;13.70;99.90
46378;DHT22;32083;47.360;9.650;2022-10-22T19:31:06;13.60;99.90
46378;DHT22;32083;47.360;9.650;2022-10-22T19:33:34;13.60;99.90
46378;DHT22;32083;47.360;9.650;2022-10-22T19:36:05;13.60;99.90
46378;DHT22;32083;47.360;9.650;2022-10-22T19:38:31;13.50;99.90
46378;DHT22;32083;47.360;9.650;2022-10-22T19:40:57;13.50;99.90
46378;DHT22;32083;47.360;9.650;2022-10-22T19:43:23;13.50;99.90
46378;DHT22;32083;47.360;9.650;2022-10-22T19:45:51;13.50;99.90
46378;DHT22;32083;47.360;9.650;2022-10-22T19:48:17;13.40;99.90
46378;DHT22;32083;47.360;9.650;2022-10-22T19:50:43;13.50;99.90
46378;DHT22;32083;47.360;9.650;2022-10-22T19:53:09;13.50;99.90
46378;DHT22;32083;47.360;9.650;2022-10-22T19:55:35;13.40;99.90
46378;DHT22;32083;47.360;9.650;2022-10-22T19:58:01;13.30;99.90
46378;DHT22;32083;47.360;9.650;2022-10-22T20:00:27;13.30;99.90
46378;DHT22;32083;47.360;9.650;2022-10-22T20:02:54;13.20;99.90
46378;DHT22;32083;47.360;9.650;2022-10-22T20:05:19;13.20;99.90
46378;DHT22;32083;47.360;9.650;2022-10-22T20:07:45;13.20;99.90
46378;DHT22;32083;47.360;9.650;2022-10-22T20:10:11;13.10;99.90
46378;DHT22;32083;47.360;9.650;2022-10-22T20:12:38;13.10;99.90
46378;DHT22;32083;47.360;9.650;2022-10-22T20:15:04;13.00;99.90
46378;DHT22;32083;47.360;9.650;2022-10-22T20:17:30;13.00;99.90
46378;DHT22;32083;47.360;9.650;2022-10-22T20:19:56;13.00;99.90
46378;DHT22;32083;47.360;9.650;2022-10-22T20:22:24;12.90;99.90